createdAt,value
2018-08-17T00:00:39.083Z,94911.13
2018-08-17T00:03:08.018Z,94907.94
2018-08-17T00:05:36.867Z,94906.21
2018-08-17T00:08:06.184Z,94906.03
2018-08-17T00:10:35.023Z,94911.48
2018-08-17T00:13:03.858Z,94913.16
2018-08-17T00:15:33.068Z,94912.52
2018-08-17T00:18:01.883Z,94916.12
2018-08-17T00:20:33.178Z,94916.58
2018-08-17T00:23:02.422Z,94913.91
2018-08-17T00:25:31.651Z,94920.81
2018-08-17T00:28:00.512Z,94925.86
2018-08-17T00:30:29.686Z,94923.20
2018-08-17T00:32:58.515Z,94915.39
2018-08-17T00:35:27.374Z,94920.05
2018-08-17T00:37:56.576Z,94917.81
2018-08-17T00:40:25.445Z,94919.78
2018-08-17T00:42:54.276Z,94923.72
2018-08-17T00:45:23.717Z,94924.98
2018-08-17T00:47:52.590Z,94910.55
2018-08-17T00:50:21.570Z,94911.86
2018-08-17T00:52:50.744Z,94917.42
2018-08-17T00:55:19.605Z,94918.42
2018-08-17T00:57:48.423Z,94922.52
2018-08-17T01:00:18.584Z,94916.09
2018-08-17T01:02:47.334Z,94930.42
2018-08-17T01:05:16.241Z,94925.91
2018-08-17T01:07:45.415Z,94924.53
2018-08-17T01:10:14.127Z,94920.44
2018-08-17T01:12:42.877Z,94921.95
2018-08-17T01:15:11.970Z,94927.16
2018-08-17T01:17:40.935Z,94925.98
2018-08-17T01:20:11.423Z,94929.69
2018-08-17T01:22:40.822Z,94920.44
2018-08-17T01:25:09.591Z,94922.38
2018-08-17T01:27:38.274Z,94917.39
2018-08-17T01:30:09.253Z,94920.59
2018-08-17T01:32:38.418Z,94927.03
2018-08-17T01:35:07.506Z,94923.96
2018-08-17T01:37:36.654Z,94928.70
2018-08-17T01:40:06.231Z,94924.19
2018-08-17T01:42:34.991Z,94924.80
2018-08-17T01:45:03.851Z,94925.09
2018-08-17T01:47:32.610Z,94924.73
2018-08-17T01:50:01.295Z,94928.94
2018-08-17T01:52:30.319Z,94923.67
2018-08-17T01:54:58.999Z,94922.92
2018-08-17T01:57:27.707Z,94924.59
2018-08-17T01:59:56.479Z,94927.59
2018-08-17T02:02:25.333Z,94922.86
2018-08-17T02:04:54.020Z,94922.48
2018-08-17T02:07:23.023Z,94927.70
2018-08-17T02:09:51.843Z,94925.11
2018-08-17T02:12:20.569Z,94920.30
2018-08-17T02:14:49.552Z,94918.78
2018-08-17T02:17:18.363Z,94924.00
2018-08-17T02:19:47.030Z,94926.50
2018-08-17T02:22:15.788Z,94925.23
2018-08-17T02:24:44.603Z,94921.28
2018-08-17T02:27:13.329Z,94926.05
2018-08-17T02:29:42.074Z,94925.12
2018-08-17T02:32:10.759Z,94932.30
2018-08-17T02:34:39.467Z,94927.69
2018-08-17T02:37:08.303Z,94934.05
2018-08-17T02:39:37.078Z,94931.89
2018-08-17T02:42:06.171Z,94934.34
2018-08-17T02:44:35.292Z,94928.88
2018-08-17T02:47:04.072Z,94933.97
2018-08-17T02:49:32.957Z,94931.98
2018-08-17T02:52:02.584Z,94927.58
2018-08-17T02:54:31.199Z,94938.74
2018-08-17T02:56:59.963Z,94931.13
2018-08-17T02:59:29.079Z,94926.19
2018-08-17T03:01:57.853Z,94927.39
2018-08-17T03:04:27.411Z,94923.86
2018-08-17T03:06:56.238Z,94930.72
2018-08-17T03:09:25.011Z,94928.47
2018-08-17T03:12:00.056Z,94931.38
2018-08-17T03:14:28.883Z,94929.92
2018-08-17T03:16:57.571Z,94935.20
2018-08-17T03:19:26.630Z,94940.38
2018-08-17T03:21:55.463Z,94938.23
2018-08-17T03:24:24.223Z,94941.96
2018-08-17T03:26:53.019Z,94944.83
2018-08-17T03:29:21.740Z,94946.98
2018-08-17T03:31:50.565Z,94947.33
2018-08-17T03:34:19.600Z,94951.47
2018-08-17T03:36:48.404Z,94948.28
2018-08-17T03:39:17.245Z,94949.04
2018-08-17T03:41:46.351Z,94951.56
2018-08-17T03:44:15.002Z,94948.13
2018-08-17T03:46:43.770Z,94947.53
2018-08-17T03:49:12.696Z,94949.04
2018-08-17T03:51:41.376Z,94953.56
2018-08-17T03:54:10.064Z,94954.44
2018-08-17T03:56:39.090Z,94949.52
2018-08-17T03:59:08.127Z,94953.46
2018-08-17T04:01:36.815Z,94948.72
2018-08-17T04:04:06.080Z,94960.23
2018-08-17T04:06:34.779Z,94956.30
2018-08-17T04:09:05.470Z,94952.73
2018-08-17T04:11:34.230Z,94957.00
2018-08-17T04:14:02.960Z,94961.25
2018-08-17T04:16:31.812Z,94956.27
2018-08-17T04:19:01.427Z,94959.38
2018-08-17T04:21:31.174Z,94970.73
2018-08-17T04:24:00.011Z,94968.53
2018-08-17T04:26:28.852Z,94969.84
2018-08-17T04:28:57.728Z,94956.68
2018-08-17T04:31:26.438Z,94954.36
2018-08-17T04:33:55.772Z,94960.34
2018-08-17T04:36:24.444Z,94964.82
2018-08-17T04:38:53.247Z,94962.08
2018-08-17T04:41:22.349Z,94967.40
2018-08-17T04:43:52.405Z,94966.67
2018-08-17T04:46:21.230Z,94965.50
2018-08-17T04:48:50.339Z,94966.38
2018-08-17T04:51:19.217Z,94969.09
2018-08-17T04:53:47.896Z,94969.33
2018-08-17T04:56:16.689Z,94968.74
2018-08-17T04:58:45.378Z,94970.89
2018-08-17T05:01:14.372Z,94978.37
2018-08-17T05:03:43.480Z,94979.25
2018-08-17T05:06:12.460Z,94972.88
2018-08-17T05:08:41.256Z,94978.78
2018-08-17T05:11:10.606Z,94983.03
2018-08-17T05:13:39.443Z,94981.70
2018-08-17T05:16:08.133Z,94991.50
2018-08-17T05:18:37.750Z,94985.84
2018-08-17T05:21:06.535Z,94976.90
2018-08-17T05:23:35.250Z,94986.56
2018-08-17T05:26:04.639Z,94990.16
2018-08-17T05:28:33.254Z,94988.25
2018-08-17T05:31:02.042Z,94992.57
2018-08-17T05:33:31.430Z,94994.31
2018-08-17T05:36:00.278Z,94994.41
2018-08-17T05:38:28.981Z,94991.83
2018-08-17T05:40:58.383Z,94991.34
2018-08-17T05:43:27.162Z,94985.33
2018-08-17T05:45:56.035Z,94989.87
2018-08-17T05:48:25.292Z,94994.91
2018-08-17T05:50:54.054Z,94977.64
2018-08-17T05:53:22.828Z,94978.92
2018-08-17T05:55:51.615Z,94979.94
2018-08-17T05:58:20.463Z,94980.70
2018-08-17T06:00:49.191Z,94988.09
2018-08-17T06:03:18.230Z,94987.72
2018-08-17T06:05:46.943Z,94988.53
2018-08-17T06:08:15.786Z,94985.45
2018-08-17T06:10:44.684Z,94974.25
2018-08-17T06:13:13.394Z,94976.31
2018-08-17T06:15:42.163Z,94984.66
2018-08-17T06:18:11.528Z,94981.80
2018-08-17T06:20:40.388Z,94988.44
2018-08-17T06:23:09.220Z,94987.91
2018-08-17T06:25:38.358Z,94978.75
2018-08-17T06:28:07.369Z,94984.29
2018-08-17T06:30:36.226Z,94980.09
2018-08-17T06:33:05.207Z,94979.81
2018-08-17T06:35:33.920Z,94986.63
2018-08-17T06:38:02.908Z,94980.90
2018-08-17T06:40:38.066Z,94979.63
2018-08-17T06:43:06.929Z,94982.38
2018-08-17T06:45:35.710Z,94979.30
2018-08-17T06:48:04.512Z,94980.00
2018-08-17T06:50:33.349Z,94985.43
2018-08-17T06:53:02.197Z,94982.73
2018-08-17T06:55:31.379Z,94989.42
2018-08-17T06:58:00.208Z,94983.42
2018-08-17T07:00:28.907Z,94975.66
2018-08-17T07:02:57.975Z,94982.88
2018-08-17T07:05:26.814Z,94987.00
2018-08-17T07:07:55.576Z,94990.02
2018-08-17T07:10:24.950Z,94990.66
2018-08-17T07:12:53.845Z,94991.80
2018-08-17T07:15:22.738Z,94993.53
2018-08-17T07:17:52.103Z,94988.69
2018-08-17T07:20:20.820Z,94986.84
2018-08-17T07:22:49.522Z,94991.44
2018-08-17T07:25:18.244Z,94996.36
2018-08-17T07:27:47.054Z,94991.20
2018-08-17T07:30:15.822Z,94990.71
2018-08-17T07:32:44.895Z,94987.32
2018-08-17T07:35:13.579Z,94990.33
2018-08-17T07:37:42.213Z,94990.80
2018-08-17T07:40:11.466Z,94988.38
2018-08-17T07:42:40.343Z,94991.72
2018-08-17T07:45:09.245Z,94996.39
2018-08-17T07:47:38.446Z,94992.29
2018-08-17T07:50:07.434Z,94993.14
2018-08-17T07:52:36.210Z,94998.33
2018-08-17T07:55:05.543Z,94994.06
2018-08-17T07:57:34.208Z,94990.39
2018-08-17T08:00:02.994Z,94990.36
2018-08-17T08:02:32.114Z,94981.11
2018-08-17T08:05:00.829Z,94984.44
2018-08-17T08:07:29.671Z,94983.82
2018-08-17T08:09:58.885Z,94991.60
2018-08-17T08:12:27.738Z,94989.90
2018-08-17T08:14:56.407Z,94980.13
2018-08-17T08:17:25.463Z,94977.84
2018-08-17T08:20:05.335Z,94977.19
2018-08-17T08:22:34.618Z,94964.67
2018-08-17T08:25:03.494Z,94968.92
2018-08-17T08:27:32.336Z,94963.09
2018-08-17T08:30:01.249Z,94958.53
2018-08-17T08:32:30.104Z,94963.92
2018-08-17T08:34:58.907Z,94963.75
2018-08-17T08:37:28.071Z,94967.27
2018-08-17T08:39:57.915Z,94962.56
2018-08-17T08:42:26.763Z,94960.92
2018-08-17T08:44:55.650Z,94959.17
2018-08-17T08:47:24.785Z,94955.41
2018-08-17T08:49:53.639Z,94956.45
2018-08-17T08:52:22.330Z,94951.39
2018-08-17T08:54:51.334Z,94955.81
2018-08-17T08:57:20.214Z,94956.97
2018-08-17T08:59:49.236Z,94953.45
2018-08-17T09:02:18.222Z,94948.27
2018-08-17T09:04:47.109Z,94945.63
2018-08-17T09:07:15.927Z,94945.34
2018-08-17T09:09:45.186Z,94945.53
2018-08-17T09:12:14.003Z,94941.26
2018-08-17T09:14:42.754Z,94942.06
2018-08-17T09:17:11.883Z,94944.81
2018-08-17T09:19:40.585Z,94934.25
2018-08-17T09:22:09.230Z,94941.83
2018-08-17T09:24:38.344Z,94933.14
2018-08-17T09:27:07.417Z,94936.38
2018-08-17T09:29:36.135Z,94931.05
2018-08-17T09:32:05.510Z,94926.16
2018-08-17T09:34:34.195Z,94924.66
2018-08-17T09:37:02.923Z,94929.06
2018-08-17T09:39:32.017Z,94909.75
2018-08-17T09:42:00.827Z,94927.88
2018-08-17T09:44:29.586Z,94919.44
2018-08-17T09:46:58.352Z,94915.44
2018-08-17T09:49:27.094Z,94914.82
2018-08-17T09:51:55.787Z,94911.62
2018-08-17T09:54:24.936Z,94919.02
2018-08-17T09:56:53.646Z,94920.47
2018-08-17T09:59:22.409Z,94914.14
2018-08-17T10:01:56.644Z,94918.27
2018-08-17T10:04:30.533Z,94901.86
2018-08-17T10:07:04.858Z,94905.81
2018-08-17T10:09:38.756Z,94899.94
2018-08-17T10:12:08.321Z,94906.84
2018-08-17T10:14:37.038Z,94895.66
2018-08-17T10:17:05.719Z,94882.48
2018-08-17T10:19:34.545Z,94892.20
2018-08-17T10:22:03.333Z,94884.65
2018-08-17T10:24:32.008Z,94887.22
2018-08-17T10:27:00.723Z,94888.94
2018-08-17T10:29:29.411Z,94881.07
2018-08-17T10:31:58.172Z,94876.38
2018-08-17T10:34:27.291Z,94873.29
2018-08-17T10:36:56.127Z,94871.98
2018-08-17T10:39:24.814Z,94873.75
2018-08-17T10:41:54.181Z,94872.44
2018-08-17T10:44:23.064Z,94872.28
2018-08-17T10:46:51.781Z,94873.31
2018-08-17T10:49:20.861Z,94876.70
2018-08-17T10:51:49.724Z,94885.32
2018-08-17T10:54:18.409Z,94872.09
2018-08-17T10:56:47.049Z,94883.77
2018-08-17T10:59:15.787Z,94870.64
2018-08-17T11:01:45.478Z,94878.20
2018-08-17T11:04:14.669Z,94883.28
2018-08-17T11:06:43.417Z,94878.03
2018-08-17T11:09:12.486Z,94865.16
2018-08-17T11:11:41.645Z,94860.27
2018-08-17T11:14:10.411Z,94867.64
2018-08-17T11:16:39.096Z,94864.65
2018-08-17T11:19:08.272Z,94878.37
2018-08-17T11:21:37.110Z,94865.72
2018-08-17T11:24:05.836Z,94872.85
2018-08-17T11:26:34.955Z,94870.94
2018-08-17T11:29:03.680Z,94873.58
2018-08-17T11:31:32.444Z,94875.75
2018-08-17T11:34:01.324Z,94881.79
2018-08-17T11:36:30.019Z,94886.12
2018-08-17T11:38:58.899Z,94878.07
2018-08-17T11:41:27.944Z,94880.56
2018-08-17T11:44:03.098Z,94873.50
2018-08-17T11:46:33.039Z,94877.77
2018-08-17T11:49:01.893Z,94884.19
2018-08-17T11:51:30.710Z,94866.17
2018-08-17T11:53:59.454Z,94873.02
2018-08-17T11:56:28.128Z,94874.45
2018-08-17T11:58:56.898Z,94868.40
2018-08-17T12:01:28.852Z,94866.92
2018-08-17T12:03:57.623Z,94861.84
2018-08-17T12:06:26.643Z,94863.20
2018-08-17T12:08:55.712Z,94858.23
2018-08-17T12:11:24.474Z,94854.96
2018-08-17T12:13:53.152Z,94857.36
2018-08-17T12:16:22.299Z,94851.73
2018-08-17T12:18:51.020Z,94846.44
2018-08-17T12:21:19.722Z,94846.48
2018-08-17T12:23:48.850Z,94844.23
2018-08-17T12:26:17.474Z,94840.16
2018-08-17T12:28:46.144Z,94835.53
2018-08-17T12:31:15.240Z,94832.28
2018-08-17T12:33:43.988Z,94829.53
2018-08-17T12:36:12.758Z,94820.92
2018-08-17T12:38:41.939Z,94822.95
2018-08-17T12:41:10.602Z,94820.48
2018-08-17T12:43:40.101Z,94816.45
2018-08-17T12:46:09.219Z,94825.45
2018-08-17T12:48:37.911Z,94804.72
2018-08-17T12:51:07.906Z,94812.56
2018-08-17T12:53:36.838Z,94818.33
2018-08-17T12:56:05.696Z,94817.32
2018-08-17T12:58:34.403Z,94819.98
2018-08-17T13:01:03.698Z,94817.08
2018-08-17T13:03:32.478Z,94817.62
2018-08-17T13:06:01.306Z,94822.59
2018-08-17T13:08:30.460Z,94823.38
2018-08-17T13:10:59.744Z,94817.56
2018-08-17T13:13:28.417Z,94825.17
2018-08-17T13:16:02.666Z,94871.63
2018-08-17T13:18:34.636Z,94857.66
2018-08-17T13:21:03.560Z,94869.56
2018-08-17T13:23:32.351Z,94850.84
2018-08-17T13:26:01.201Z,94860.59
2018-08-17T13:28:30.329Z,94865.05
2018-08-17T13:30:59.091Z,94855.72
2018-08-17T13:33:27.880Z,94870.41
2018-08-17T13:35:56.669Z,94865.47
2018-08-17T13:38:25.564Z,94882.64
2018-08-17T13:40:54.354Z,94871.18
2018-08-17T13:43:23.656Z,94882.50
2018-08-17T13:45:52.443Z,94870.77
2018-08-17T13:48:21.337Z,94878.11
2018-08-17T13:50:50.532Z,94874.39
2018-08-17T13:53:19.303Z,94871.80
2018-08-17T13:55:47.971Z,94863.44
2018-08-17T13:58:17.227Z,94873.65
2018-08-17T14:00:46.007Z,94867.86
2018-08-17T14:03:14.888Z,94859.57
2018-08-17T14:05:43.808Z,94855.98
2018-08-17T14:08:12.540Z,94858.77
2018-08-17T14:10:41.365Z,94856.95
2018-08-17T14:13:10.474Z,94855.36
2018-08-17T14:15:39.433Z,94846.05
2018-08-17T14:18:08.199Z,94850.45
2018-08-17T14:20:37.564Z,94854.20
2018-08-17T14:23:06.342Z,94843.19
2018-08-17T14:25:35.116Z,94840.83
2018-08-17T14:28:04.126Z,94848.11
2018-08-17T14:30:32.755Z,94851.23
2018-08-17T14:33:01.704Z,94847.80
2018-08-17T14:35:30.465Z,94837.14
2018-08-17T14:37:59.239Z,94831.69
2018-08-17T14:40:28.013Z,94842.81
2018-08-17T14:42:56.839Z,94840.58
2018-08-17T14:45:25.526Z,94845.20
2018-08-17T14:47:54.331Z,94845.95
2018-08-17T14:50:23.554Z,94849.96
2018-08-17T14:52:52.530Z,94852.69
2018-08-17T14:55:21.424Z,94847.48
2018-08-17T14:57:50.418Z,94860.25
2018-08-17T15:00:19.268Z,94858.84
2018-08-17T15:02:48.008Z,94856.73
2018-08-17T15:05:17.196Z,94846.70
2018-08-17T15:07:45.897Z,94847.17
2018-08-17T15:10:15.279Z,94846.90
2018-08-17T15:12:44.438Z,94838.47
2018-08-17T15:15:13.778Z,94844.91
2018-08-17T15:17:42.534Z,94840.30
2018-08-17T15:20:14.251Z,94834.88
2018-08-17T15:22:43.114Z,94846.66
2018-08-17T15:25:11.911Z,94841.91
2018-08-17T15:27:40.694Z,94846.56
2018-08-17T15:30:10.896Z,94846.28
2018-08-17T15:32:40.277Z,94860.78
2018-08-17T15:35:09.870Z,94849.27
2018-08-17T15:37:39.182Z,94847.39
2018-08-17T15:40:10.602Z,94835.78
2018-08-17T15:42:39.559Z,94831.46
2018-08-17T15:45:08.811Z,94837.27
2018-08-17T15:47:38.295Z,94825.63
2018-08-17T15:50:14.442Z,94830.69
2018-08-17T15:52:43.867Z,94846.16
2018-08-17T15:55:12.848Z,94854.70
2018-08-17T15:57:41.819Z,94850.31
2018-08-17T16:00:16.927Z,94852.93
2018-08-17T16:02:45.905Z,94850.16
2018-08-17T16:05:14.768Z,94847.27
2018-08-17T16:07:43.882Z,94841.55
2018-08-17T16:10:14.448Z,94843.88
2018-08-17T16:12:43.190Z,94841.73
2018-08-17T16:15:12.398Z,94847.17
2018-08-17T16:17:41.262Z,94852.36
2018-08-17T16:20:11.723Z,94851.89
2018-08-17T16:22:41.526Z,94853.12
2018-08-17T16:25:11.247Z,94855.08
2018-08-17T16:27:40.470Z,94853.12
2018-08-17T16:30:11.307Z,94854.42
2018-08-17T16:32:40.339Z,94857.14
2018-08-17T16:35:09.375Z,94857.99
2018-08-17T16:37:46.354Z,94856.86
2018-08-17T16:40:15.228Z,94866.22
2018-08-17T16:42:43.912Z,94871.69
2018-08-17T16:45:13.122Z,94866.73
2018-08-17T16:47:41.853Z,94860.63
2018-08-17T16:50:10.694Z,94870.46
2018-08-17T16:52:39.829Z,94873.09
2018-08-17T16:55:09.714Z,94875.15
2018-08-17T16:57:39.018Z,94878.89
2018-08-17T17:00:09.759Z,94878.51
2018-08-17T17:02:38.638Z,94875.22
2018-08-17T17:05:08.039Z,94871.94
2018-08-17T17:07:37.155Z,94881.46
2018-08-17T17:10:07.982Z,94880.31
2018-08-17T17:12:36.819Z,94877.98
2018-08-17T17:15:14.572Z,94881.52
2018-08-17T17:17:45.395Z,94882.72
2018-08-17T17:20:14.089Z,94890.46
2018-08-17T17:22:43.170Z,94883.33
2018-08-17T17:25:17.010Z,94887.73
2018-08-17T17:27:46.318Z,94894.38
2018-08-17T17:30:17.141Z,94895.39
2018-08-17T17:32:45.931Z,94897.45
2018-08-17T17:35:14.782Z,94901.33
2018-08-17T17:37:43.612Z,94900.53
2018-08-17T17:40:12.393Z,94900.59
2018-08-17T17:42:41.434Z,94905.30
2018-08-17T17:45:10.132Z,94906.97
2018-08-17T17:47:38.836Z,94910.53
2018-08-17T17:50:07.965Z,94913.92
2018-08-17T17:52:36.634Z,94913.03
2018-08-17T17:55:05.450Z,94918.23
2018-08-17T17:57:34.555Z,94923.14
2018-08-17T18:00:03.427Z,94925.34
2018-08-17T18:02:32.195Z,94927.85
2018-08-17T18:05:00.886Z,94932.42
2018-08-17T18:07:34.391Z,94932.36
2018-08-17T18:10:03.760Z,94932.71
2018-08-17T18:12:32.602Z,94931.25
2018-08-17T18:15:01.351Z,94938.59
2018-08-17T18:17:30.502Z,94938.83
2018-08-17T18:19:59.284Z,94945.06
2018-08-17T18:22:31.494Z,94947.20
2018-08-17T18:25:05.272Z,94950.36
2018-08-17T18:27:34.043Z,94946.66
2018-08-17T18:30:02.922Z,94949.01
2018-08-17T18:32:31.720Z,94952.94
2018-08-17T18:35:00.871Z,94955.84
2018-08-17T18:37:29.609Z,94960.38
2018-08-17T18:39:58.285Z,94960.27
2018-08-17T18:42:27.035Z,94973.52
2018-08-17T18:44:55.879Z,94967.20
2018-08-17T18:47:24.720Z,94970.34
2018-08-17T18:49:53.878Z,94972.38
2018-08-17T18:52:22.649Z,94978.73
2018-08-17T18:54:51.555Z,94983.23
2018-08-17T18:57:20.443Z,94978.13
2018-08-17T18:59:49.220Z,94975.67
2018-08-17T19:02:17.924Z,94981.91
2018-08-17T19:04:47.127Z,94989.33
2018-08-17T19:07:16.794Z,94984.26
2018-08-17T19:09:46.020Z,94985.16
2018-08-17T19:12:15.139Z,94987.53
2018-08-17T19:14:49.827Z,94989.02
2018-08-17T19:17:23.974Z,94984.73
2018-08-17T19:19:53.511Z,94991.34
2018-08-17T19:22:22.569Z,94996.62
2018-08-17T19:24:53.195Z,94995.34
2018-08-17T19:27:27.808Z,94998.25
2018-08-17T19:29:57.853Z,94991.39
2018-08-17T19:32:26.860Z,94992.97
2018-08-17T19:34:55.992Z,94993.61
2018-08-17T19:37:25.085Z,94990.38
2018-08-17T19:39:54.214Z,94993.06
2018-08-17T19:42:23.095Z,94995.30
2018-08-17T19:44:52.141Z,94995.63
2018-08-17T19:47:21.099Z,94986.36
2018-08-17T19:49:50.012Z,94983.66
2018-08-17T19:52:19.222Z,94992.90
2018-08-17T19:54:48.394Z,94994.17
2018-08-17T19:57:17.280Z,94990.62
2018-08-17T19:59:46.606Z,94990.27
2018-08-17T20:02:15.404Z,94994.41
2018-08-17T20:04:44.223Z,94999.58
2018-08-17T20:07:13.806Z,94999.78
2018-08-17T20:12:10.802Z,95003.91
2018-08-17T20:14:39.887Z,95010.23
2018-08-17T20:17:08.919Z,95014.52
2018-08-17T20:19:52.191Z,95017.11
2018-08-17T20:22:23.187Z,95025.02
2018-08-17T20:24:51.979Z,95016.75
2018-08-17T20:27:21.610Z,95014.41
2018-08-17T20:29:50.478Z,95016.69
2018-08-17T20:32:19.499Z,95019.44
2018-08-17T20:34:49.779Z,95014.05
2018-08-17T20:37:19.239Z,95020.98
2018-08-17T20:39:48.267Z,95017.84
2018-08-17T20:42:17.096Z,95018.84
2018-08-17T20:44:46.295Z,95021.14
2018-08-17T20:47:16.416Z,95019.06
2018-08-17T20:49:45.679Z,95015.01
2018-08-17T20:52:14.615Z,95001.47
2018-08-17T20:54:44.107Z,95007.44
2018-08-17T20:57:13.602Z,95002.92
2018-08-17T20:59:42.780Z,95005.80
2018-08-17T21:02:13.687Z,95000.70
2018-08-17T21:04:43.587Z,94997.70
2018-08-17T21:07:12.881Z,94998.98
2018-08-17T21:09:42.159Z,95010.47
2018-08-17T21:12:11.418Z,95035.80
2018-08-17T21:14:41.706Z,95046.27
2018-08-17T21:17:10.501Z,95035.05
2018-08-17T21:19:40.479Z,95039.36
2018-08-17T21:22:10.938Z,95035.34
2018-08-17T21:24:40.146Z,95027.36
2018-08-17T21:27:09.275Z,95030.70
2018-08-17T21:29:38.249Z,95034.38
2018-08-17T21:32:07.229Z,95029.98
2018-08-17T21:34:36.552Z,95025.67
2018-08-17T21:37:05.730Z,95021.33
2018-08-17T21:39:34.367Z,95025.97
2018-08-17T21:42:03.179Z,95024.96
2018-08-17T21:44:32.198Z,95024.67
2018-08-17T21:47:04.702Z,95030.41
2018-08-17T21:49:34.426Z,95038.50
2018-08-17T21:52:06.734Z,95037.28
2018-08-17T21:54:35.897Z,95031.17
2018-08-17T21:57:05.294Z,95022.47
2018-08-17T21:59:38.310Z,95020.86
2018-08-17T22:02:11.387Z,95026.31
2018-08-17T22:04:40.380Z,95024.96
2018-08-17T22:07:13.289Z,95028.75
2018-08-17T22:09:43.506Z,95031.70
2018-08-17T22:12:13.399Z,95025.38
2018-08-17T22:14:42.402Z,95016.28
2018-08-17T22:17:22.243Z,95015.36
2018-08-17T22:19:50.979Z,95007.07
2018-08-17T22:22:21.435Z,95009.50
2018-08-17T22:24:51.874Z,95011.73
2018-08-17T22:27:21.494Z,95013.97
2018-08-17T22:29:51.834Z,95012.50
2018-08-17T22:32:21.115Z,95004.05
2018-08-17T22:34:50.931Z,95010.59
2018-08-17T22:37:20.043Z,95005.48
2018-08-17T22:39:49.803Z,95000.50
2018-08-17T22:42:19.927Z,94999.66
2018-08-17T22:44:49.458Z,94995.87
2018-08-17T22:47:21.510Z,95007.05
2018-08-17T22:49:51.502Z,95016.84
2018-08-17T22:52:20.694Z,95009.54
2018-08-17T22:54:54.854Z,95014.46
2018-08-17T22:57:24.002Z,95019.62
2018-08-17T23:00:19.724Z,95021.84
2018-08-17T23:02:49.652Z,95025.45
2018-08-17T23:05:21.589Z,95024.75
2018-08-17T23:07:50.642Z,95027.53
2018-08-17T23:10:22.536Z,95022.52
2018-08-17T23:12:52.560Z,95019.58
2018-08-17T23:15:22.024Z,95021.91
2018-08-17T23:17:56.284Z,95015.52
2018-08-17T23:20:30.284Z,95015.91
2018-08-17T23:23:00.582Z,95017.36
2018-08-17T23:25:29.781Z,95018.75
2018-08-17T23:27:58.773Z,95029.97
2018-08-17T23:30:27.666Z,95024.06
2018-08-17T23:32:56.680Z,95022.73
2018-08-17T23:35:25.402Z,95020.73
2018-08-17T23:37:54.388Z,95013.44
2018-08-17T23:40:23.627Z,95013.66
2018-08-17T23:42:52.617Z,95015.72
2018-08-17T23:45:22.284Z,95006.52
2018-08-17T23:47:51.129Z,95012.55
2018-08-17T23:50:20.029Z,95011.66
2018-08-17T23:52:48.869Z,95017.11
2018-08-17T23:55:18.776Z,95011.48
2018-08-17T23:57:48.509Z,95012.17
